Time;durP1;ratioP1;P1;durP2;ratioP2;P2;SDS_P1;SDS_P2;PMS_P1;PMS_P2;Temp;Humidity;BMP_temperature;BMP_pressure;BME280_temperature;BME280_humidity;BME280_pressure;Samples;Min_cycle;Max_cycle;Signal;HPM_P1;HPM_P2
2022/12/02 00:01:31;;;;;;;;;;;;;;;;;;5069824;28;20457;-79
2022/12/02 00:03:56;;;;;;;;;;;;;;;;;;5061213;28;21557;-79
2022/12/02 00:06:22;;;;;;;;;;;;;;;;;;5069450;28;19935;-79
2022/12/02 00:08:48;;;;;;;;;;;;;;;;;;5064927;28;19908;-79
2022/12/02 00:11:14;;;;;;;;;;;;;;;;;;5067155;28;19916;-79
2022/12/02 00:13:40;;;;;;;;;;;;;;;;;;5059431;28;19915;-79
2022/12/02 00:16:06;;;;;;;;;;;;;;;;;;5060290;28;19999;-79
2022/12/02 00:18:31;;;;;;;;;;;;;;;;;;5063263;28;19908;-79
2022/12/02 00:20:57;;;;;;;;;;;;;;;;;;5060678;28;20483;-79
2022/12/02 00:23:23;;;;;;;;;;;;;;;;;;5068443;28;19931;-79
2022/12/02 00:25:49;;;;;;;;;;;;;;;;;;5067400;28;19994;-79
2022/12/02 00:28:15;;;;;;;;;;;;;;;;;;5066489;28;19990;-79
2022/12/02 00:30:41;;;;;;;;;;;;;;;;;;5065470;28;20003;-79
2022/12/02 00:33:06;;;;;;;;;;;;;;;;;;5065984;28;19916;-79
2022/12/02 00:35:32;;;;;;;;;;;;;;;;;;5062909;28;19904;-79
2022/12/02 00:37:58;;;;;;;;;;;;;;;;;;5065868;28;19985;-79
2022/12/02 00:40:24;;;;;;;;;;;;;;;;;;5068706;28;19923;-80
2022/12/02 00:42:50;;;;;;;;;;;;;;;;;;5060460;28;20362;-79
2022/12/02 00:48:00;;;;;;;;;;;;;;;;;;5063224;28;19951;-80
2022/12/02 00:50:26;;;;;;;;;;;;;;;;;;5065137;28;19956;-80
2022/12/02 00:52:53;;;;;;;;;;;;;;;;;;5060711;28;19931;-79
2022/12/02 00:55:19;;;;;;;;;;;;;;;;;;5062454;28;19908;-79
2022/12/02 00:57:45;;;;;;;;;;;;;;;;;;5061066;28;20388;-79
2022/12/02 01:00:11;;;;;;;;;;;;;;;;;;5065139;28;20007;-79
2022/12/02 01:02:36;;;;;;;;;;;;;;;;;;5067508;28;19908;-80
2022/12/02 01:05:02;;;;;;;;;;;;;;;;;;5064934;28;19916;-79
2022/12/02 01:07:28;;;;;;;;;;;;;;;;;;5066782;28;20007;-79
2022/12/02 01:09:54;;;;;;;;;;;;;;;;;;5065719;28;19915;-79
2022/12/02 01:12:20;;;;;;;;;;;;;;;;;;5062006;28;19954;-79
2022/12/02 01:14:46;;;;;;;;;;;;;;;;;;5066612;28;19926;-79
2022/12/02 01:17:12;;;;;;;;;;;;;;;;;;5065531;28;19912;-79
2022/12/02 01:19:37;;;;;;;;;;;;;;;;;;5064629;28;19944;-79
2022/12/02 01:22:03;;;;;;;;;;;;;;;;;;5057805;28;19915;-79
2022/12/02 01:24:29;;;;;;;;;;;;;;;;;;5062913;28;19931;-79
2022/12/02 01:26:55;;;;;;;;;;;;;;;;;;5062203;28;19935;-79
2022/12/02 01:29:21;;;;;;;;;;;;;;;;;;5062314;28;20019;-79
2022/12/02 01:31:47;;;;;;;;;;;;;;;;;;5059487;28;19959;-80
2022/12/02 01:34:12;;;;;;;;;;;;;;;;;;5064595;28;19908;-79
2022/12/02 01:36:38;;;;;;;;;;;;;;;;;;5065398;28;19908;-79
2022/12/02 01:39:04;;;;;;;;;;;;;;;;;;5064221;28;19988;-79
2022/12/02 01:41:30;;;;;;;;;;;;;;;;;;5067609;28;20271;-79
2022/12/02 01:43:56;;;;;;;;;;;;;;;;;;5067337;28;20278;-79
2022/12/02 01:46:22;;;;;;;;;;;;;;;;;;5060491;28;20011;-79
2022/12/02 01:48:48;;;;;;;;;;;;;;;;;;5066457;28;19923;-80
2022/12/02 01:51:13;;;;;;;;;;;;;;;;;;5061557;28;19924;-79
2022/12/02 01:53:40;;;;;;;;;;;;;;;;;;5060006;28;19908;-79
2022/12/02 01:56:06;;;;;;;;;;;;;;;;;;5065562;28;19916;-79
2022/12/02 01:58:32;;;;;;;;;;;;;;;;;;5062449;28;19919;-79
2022/12/02 02:00:58;;;;;;;;;;;;;;;;;;5063760;28;19965;-80
2022/12/02 02:03:23;;;;;;;;;;;;;;;;;;5061432;28;19954;-79
2022/12/02 02:05:49;;;;;;;;;;;;;;;;;;5058935;28;19913;-80
2022/12/02 02:08:15;;;;;;;;;;;;;;;;;;5067130;28;19908;-79
2022/12/02 02:10:41;;;;;;;;;;;;;;;;;;5063706;28;19974;-80
2022/12/02 02:13:07;;;;;;;;;;;;;;;;;;5060154;28;19938;-80
2022/12/02 02:15:33;;;;;;;;;;;;;;;;;;5063412;28;19915;-79
2022/12/02 02:17:59;;;;;;;;;;;;;;;;;;5064484;28;20351;-79
2022/12/02 02:20:24;;;;;;;;;;;;;;;;;;5066893;28;19919;-79
2022/12/02 02:22:50;;;;;;;;;;;;;;;;;;5062838;28;20335;-80
2022/12/02 02:25:16;;;;;;;;;;;;;;;;;;5064364;28;19916;-80
2022/12/02 02:27:42;;;;;;;;;;;;;;;;;;5059300;28;20000;-80
2022/12/02 02:30:08;;;;;;;;;;;;;;;;;;5062077;28;19909;-79
2022/12/02 02:32:34;;;;;;;;;;;;;;;;;;5064466;28;19909;-80
2022/12/02 02:35:00;;;;;;;;;;;;;;;;;;5067323;28;19966;-80
2022/12/02 02:37:25;;;;;;;;;;;;;;;;;;5064982;28;19912;-80
2022/12/02 02:39:51;;;;;;;;;;;;;;;;;;5061761;28;19923;-80
2022/12/02 02:42:17;;;;;;;;;;;;;;;;;;5065378;28;19913;-80
2022/12/02 02:44:43;;;;;;;;;;;;;;;;;;5067180;28;20356;-79
2022/12/02 02:47:09;;;;;;;;;;;;;;;;;;5064975;28;20335;-79
2022/12/02 02:49:35;;;;;;;;;;;;;;;;;;5065136;28;19912;-79
2022/12/02 02:52:01;;;;;;;;;;;;;;;;;;5055867;28;19912;-80
2022/12/02 02:54:26;;;;;;;;;;;;;;;;;;5063323;28;19916;-79
2022/12/02 02:56:52;;;;;;;;;;;;;;;;;;5066223;28;19919;-80
2022/12/02 02:59:18;;;;;;;;;;;;;;;;;;5061178;28;19912;-80
2022/12/02 03:01:44;;;;;;;;;;;;;;;;;;5063422;28;19912;-79
2022/12/02 03:04:10;;;;;;;;;;;;;;;;;;5064271;28;19908;-80
2022/12/02 03:06:36;;;;;;;;;;;;;;;;;;5066108;28;19915;-80
2022/12/02 03:09:01;;;;;;;;;;;;;;;;;;5065959;28;19912;-80
2022/12/02 03:11:27;;;;;;;;;;;;;;;;;;5061243;28;19909;-80
2022/12/02 03:13:53;;;;;;;;;;;;;;;;;;5057573;28;20285;-80
2022/12/02 03:16:19;;;;;;;;;;;;;;;;;;5065569;28;19908;-79
2022/12/02 03:18:45;;;;;;;;;;;;;;;;;;5064922;28;20045;-79
2022/12/02 03:21:11;;;;;;;;;;;;;;;;;;5061392;28;20381;-80
2022/12/02 03:23:36;;;;;;;;;;;;;;;;;;5062599;28;19909;-80
2022/12/02 03:26:02;;;;;;;;;;;;;;;;;;5064884;28;19909;-80
2022/12/02 03:28:28;;;;;;;;;;;;;;;;;;5070868;28;19909;-80
2022/12/02 03:30:54;;;;;;;;;;;;;;;;;;5066233;28;20002;-80
2022/12/02 03:33:20;;;;;;;;;;;;;;;;;;5061887;28;19934;-80
2022/12/02 03:35:46;;;;;;;;;;;;;;;;;;5061293;28;19912;-80
2022/12/02 03:38:12;;;;;;;;;;;;;;;;;;5067289;28;19916;-80
2022/12/02 03:40:38;;;;;;;;;;;;;;;;;;5062985;28;19995;-80
2022/12/02 03:43:03;;;;;;;;;;;;;;;;;;5062293;28;19911;-80
2022/12/02 03:45:29;;;;;;;;;;;;;;;;;;5070101;28;19912;-80
2022/12/02 03:47:55;;;;;;;;;;;;;;;;;;5060038;28;19912;-80
2022/12/02 03:50:21;;;;;;;;;;;;;;;;;;5066622;28;19924;-80
2022/12/02 03:52:47;;;;;;;;;;;;;;;;;;5065902;28;19908;-80
2022/12/02 03:55:13;;;;;;;;;;;;;;;;;;5058577;28;19955;-80
2022/12/02 03:57:41;;;;;;;;;;;;;;;;;;5058964;28;19931;-80
2022/12/02 04:00:06;;;;;;;;;;;;;;;;;;5065516;28;19917;-80
2022/12/02 04:02:32;;;;;;;;;;;;;;;;;;5069411;28;19912;-80
2022/12/02 04:04:58;;;;;;;;;;;;;;;;;;5069706;28;19955;-80
2022/12/02 04:07:24;;;;;;;;;;;;;;;;;;5068097;28;20275;-80
2022/12/02 04:09:50;;;;;;;;;;;;;;;;;;5063762;28;20695;-80
2022/12/02 04:12:16;;;;;;;;;;;;;;;;;;5067273;28;19908;-80
2022/12/02 04:14:41;;;;;;;;;;;;;;;;;;5069829;28;19924;-80
2022/12/02 04:17:07;;;;;;;;;;;;;;;;;;5069847;28;19999;-80
2022/12/02 04:19:33;;;;;;;;;;;;;;;;;;5063546;28;19908;-80
2022/12/02 04:21:59;;;;;;;;;;;;;;;;;;5064287;28;20454;-80
2022/12/02 04:24:25;;;;;;;;;;;;;;;;;;5066414;28;20278;-80
2022/12/02 04:26:51;;;;;;;;;;;;;;;;;;5052790;28;20457;-80
2022/12/02 04:29:17;;;;;;;;;;;;;;;;;;5062844;28;19931;-80
2022/12/02 04:31:42;;;;;;;;;;;;;;;;;;5065206;28;19912;-80
2022/12/02 04:34:08;;;;;;;;;;;;;;;;;;5067934;28;19927;-80
2022/12/02 04:36:34;;;;;;;;;;;;;;;;;;5067022;28;19912;-80
2022/12/02 04:39:00;;;;;;;;;;;;;;;;;;5064886;28;19913;-80
2022/12/02 04:41:28;;;;;;;;;;;;;;;;;;5063486;28;20025;-80
2022/12/02 04:43:53;;;;;;;;;;;;;;;;;;5066756;28;20233;-80
2022/12/02 04:46:19;;;;;;;;;;;;;;;;;;5066931;28;19915;-80
2022/12/02 04:48:45;;;;;;;;;;;;;;;;;;5070102;28;19908;-80
2022/12/02 04:51:11;;;;;;;;;;;;;;;;;;5058112;28;19916;-80
2022/12/02 04:53:37;;;;;;;;;;;;;;;;;;5065710;28;19914;-80
2022/12/02 04:56:03;;;;;;;;;;;;;;;;;;5067556;28;19990;-80
2022/12/02 04:58:28;;;;;;;;;;;;;;;;;;5069261;28;19931;-80
2022/12/02 05:00:54;;;;;;;;;;;;;;;;;;5062686;28;19916;-80
2022/12/02 05:03:20;;;;;;;;;;;;;;;;;;5065445;28;19914;-80
2022/12/02 05:05:46;;;;;;;;;;;;;;;;;;5062714;28;19954;-80
2022/12/02 05:08:12;;;;;;;;;;;;;;;;;;5068903;28;19912;-80
2022/12/02 05:10:38;;;;;;;;;;;;;;;;;;5064713;28;19908;-80
2022/12/02 05:13:04;;;;;;;;;;;;;;;;;;5062593;28;19939;-80
2022/12/02 05:15:29;;;;;;;;;;;;;;;;;;5062908;28;19908;-80
2022/12/02 05:17:55;;;;;;;;;;;;;;;;;;5066830;28;19912;-80
2022/12/02 05:20:21;;;;;;;;;;;;;;;;;;5068234;28;19922;-80
2022/12/02 05:22:47;;;;;;;;;;;;;;;;;;5065416;28;20352;-79
2022/12/02 05:25:13;;;;;;;;;;;;;;;;;;5061816;28;19915;-80
2022/12/02 05:27:39;;;;;;;;;;;;;;;;;;5061136;28;19951;-79
2022/12/02 05:30:04;;;;;;;;;;;;;;;;;;5065719;28;19912;-80
2022/12/02 05:32:30;;;;;;;;;;;;;;;;;;5061686;28;19915;-78
2022/12/02 05:34:56;;;;;;;;;;;;;;;;;;5063714;28;19919;-78
2022/12/02 05:37:22;;;;;;;;;;;;;;;;;;5064319;28;20410;-81
2022/12/02 05:39:48;;;;;;;;;;;;;;;;;;5064070;28;20401;-82
2022/12/02 05:42:14;;;;;;;;;;;;;;;;;;5060303;28;19909;-83
2022/12/02 05:44:42;;;;;;;;;;;;;;;;;;5054959;28;19912;-83
2022/12/02 05:47:07;;;;;;;;;;;;;;;;;;5065925;28;19905;-83
2022/12/02 05:49:34;;;;;;;;;;;;;;;;;;5064160;28;20278;-83
2022/12/02 05:51:59;;;;;;;;;;;;;;;;;;5065260;28;19913;-83
2022/12/02 05:54:25;;;;;;;;;;;;;;;;;;5059997;28;19915;-83
2022/12/02 05:56:51;;;;;;;;;;;;;;;;;;5056523;28;20003;-83
2022/12/02 05:59:17;;;;;;;;;;;;;;;;;;5068967;28;20347;-84
2022/12/02 06:01:43;;;;;;;;;;;;;;;;;;5062987;28;20433;-83
2022/12/02 06:04:09;;;;;;;;;;;;;;;;;;5061776;28;19936;-83
2022/12/02 06:06:35;;;;;;;;;;;;;;;;;;5059735;28;20370;-83
2022/12/02 06:09:00;;;;;;;;;;;;;;;;;;5061151;28;20671;-83
2022/12/02 06:11:27;;;;;;;;;;;;;;;;;;5067912;28;19908;-83
2022/12/02 06:13:53;;;;;;;;;;;;;;;;;;5066275;28;19909;-82
2022/12/02 06:16:19;;;;;;;;;;;;;;;;;;5064951;28;19923;-83
2022/12/02 06:18:45;;;;;;;;;;;;;;;;;;5067724;28;19999;-83
2022/12/02 06:21:11;;;;;;;;;;;;;;;;;;5059742;28;19917;-83
2022/12/02 06:23:36;;;;;;;;;;;;;;;;;;5061991;28;19986;-83
2022/12/02 06:26:02;;;;;;;;;;;;;;;;;;5068041;28;20031;-83
2022/12/02 06:28:29;;;;;;;;;;;;;;;;;;5056073;28;20407;-83
2022/12/02 06:30:55;;;;;;;;;;;;;;;;;;5055666;28;20302;-83
2022/12/02 06:33:20;;;;;;;;;;;;;;;;;;5061105;28;20008;-83
2022/12/02 06:35:46;;;;;;;;;;;;;;;;;;5061519;28;20252;-83
2022/12/02 06:38:12;;;;;;;;;;;;;;;;;;5067897;28;20329;-82
2022/12/02 06:40:38;;;;;;;;;;;;;;;;;;5067238;28;20314;-82
2022/12/02 06:43:04;;;;;;;;;;;;;;;;;;5055885;28;20300;-79
2022/12/02 06:45:30;;;;;;;;;;;;;;;;;;5065608;28;19915;-82
2022/12/02 06:47:55;;;;;;;;;;;;;;;;;;5066064;28;19978;-84
2022/12/02 06:50:21;;;;;;;;;;;;;;;;;;5061411;28;19943;-82
2022/12/02 06:52:47;;;;;;;;;;;;;;;;;;5066250;28;20394;-82
2022/12/02 06:55:13;;;;;;;;;;;;;;;;;;5059791;28;20278;-82
2022/12/02 06:57:39;;;;;;;;;;;;;;;;;;5067810;28;19904;-82
2022/12/02 07:00:05;;;;;;;;;;;;;;;;;;5064002;28;19999;-82
2022/12/02 07:02:30;;;;;;;;;;;;;;;;;;5048864;28;21371;-82
2022/12/02 07:04:56;;;;;;;;;;;;;;;;;;5055911;28;19934;-82
2022/12/02 07:07:22;;;;;;;;;;;;;;;;;;5065484;28;19908;-82
2022/12/02 07:09:48;;;;;;;;;;;;;;;;;;5059880;28;19945;-82
2022/12/02 07:12:14;;;;;;;;;;;;;;;;;;5064291;28;20003;-83
2022/12/02 07:14:40;;;;;;;;;;;;;;;;;;5064026;28;19917;-82
2022/12/02 07:17:05;;;;;;;;;;;;;;;;;;5065046;28;19932;-82
2022/12/02 07:19:31;;;;;;;;;;;;;;;;;;5062981;28;20130;-82
2022/12/02 07:21:57;;;;;;;;;;;;;;;;;;5063087;28;19954;-82
2022/12/02 07:24:23;;;;;;;;;;;;;;;;;;5062510;28;19952;-82
2022/12/02 07:26:49;;;;;;;;;;;;;;;;;;5053523;28;19908;-82
2022/12/02 07:29:15;;;;;;;;;;;;;;;;;;5067326;28;19995;-80
2022/12/02 07:31:45;;;;;;;;;;;;;;;;;;5061084;28;20016;-78
2022/12/02 07:34:12;;;;;;;;;;;;;;;;;;5062859;28;19998;-77
2022/12/02 07:36:38;;;;;;;;;;;;;;;;;;5057743;28;19966;-78
2022/12/02 07:39:03;;;;;;;;;;;;;;;;;;5063683;28;20522;-78
2022/12/02 07:41:30;;;;;;;;;;;;;;;;;;5063953;28;20252;-78
2022/12/02 07:43:55;;;;;;;;;;;;;;;;;;5062169;28;19904;-78
2022/12/02 07:46:22;;;;;;;;;;;;;;;;;;5067531;28;19908;-77
2022/12/02 07:48:47;;;;;;;;;;;;;;;;;;5064428;28;20363;-82
2022/12/02 07:51:13;;;;;;;;;;;;;;;;;;5063296;28;19970;-82
2022/12/02 07:53:39;;;;;;;;;;;;;;;;;;5062439;28;20329;-82
2022/12/02 07:56:05;;;;;;;;;;;;;;;;;;5063911;28;19931;-82
2022/12/02 07:58:31;;;;;;;;;;;;;;;;;;5063690;28;19970;-80
2022/12/02 08:00:57;;;;;;;;;;;;;;;;;;5065526;28;19908;-80
2022/12/02 08:03:22;;;;;;;;;;;;;;;;;;5067869;28;19904;-80
2022/12/02 08:05:48;;;;;;;;;;;;;;;;;;5067225;28;19950;-80
2022/12/02 08:08:14;;;;;;;;;;;;;;;;;;5056561;28;19908;-80
2022/12/02 08:10:40;;;;;;;;;;;;;;;;;;5067546;28;19904;-80
2022/12/02 08:13:06;;;;;;;;;;;;;;;;;;5070462;28;19912;-80
2022/12/02 08:15:32;;;;;;;;;;;;;;;;;;5071053;28;19912;-80
2022/12/02 08:17:58;;;;;;;;;;;;;;;;;;5068765;28;19915;-80
2022/12/02 08:20:24;;;;;;;;;;;;;;;;;;5071081;28;19913;-80
2022/12/02 08:22:49;;;;;;;;;;;;;;;;;;5070446;28;19908;-80
2022/12/02 08:25:15;;;;;;;;;;;;;;;;;;5071018;28;20003;-80
2022/12/02 08:27:41;;;;;;;;;;;;;;;;;;5071082;28;19961;-80
2022/12/02 08:30:07;;;;;;;;;;;;;;;;;;5066319;28;19966;-80
2022/12/02 08:32:34;;;;;;;;;;;;;;;;;;5063392;28;20639;-80
2022/12/02 08:34:59;;;;;;;;;;;;;;;;;;5056030;28;20130;-79
2022/12/02 08:37:25;;;;;;;;;;;;;;;;;;5063861;28;19908;-79
2022/12/02 08:39:51;;;;;;;;;;;;;;;;;;5068256;28;20088;-75
2022/12/02 08:42:17;;;;;;;;;;;;;;;;;;5067821;28;20079;-77
2022/12/02 08:44:43;;;;;;;;;;;;;;;;;;5070671;28;19904;-76
2022/12/02 08:47:09;;;;;;;;;;;;;;;;;;5069559;28;19958;-77
2022/12/02 08:49:34;;;;;;;;;;;;;;;;;;5068659;28;19943;-76
2022/12/02 08:52:00;;;;;;;;;;;;;;;;;;5067320;28;19966;-76
2022/12/02 08:54:26;;;;;;;;;;;;;;;;;;5069870;28;19943;-77
2022/12/02 08:56:54;;;;;;;;;;;;;;;;;;5068086;28;19924;-76
2022/12/02 08:59:20;;;;;;;;;;;;;;;;;;5059865;28;20264;-76
2022/12/02 09:01:46;;;;;;;;;;;;;;;;;;5066976;28;19919;-76
2022/12/02 09:04:12;;;;;;;;;;;;;;;;;;5069895;28;19916;-76
2022/12/02 09:06:38;;;;;;;;;;;;;;;;;;5068950;28;20018;-76
2022/12/02 09:09:04;;;;;;;;;;;;;;;;;;5067326;28;19905;-76
2022/12/02 09:11:29;;;;;;;;;;;;;;;;;;5063207;28;20003;-77
2022/12/02 09:13:55;;;;;;;;;;;;;;;;;;5064689;28;19985;-76
2022/12/02 09:16:21;;;;;;;;;;;;;;;;;;5069955;28;20003;-76
2022/12/02 09:18:47;;;;;;;;;;;;;;;;;;5069016;28;19912;-77
2022/12/02 09:21:13;;;;;;;;;;;;;;;;;;5066538;28;19916;-76
2022/12/02 09:23:39;;;;;;;;;;;;;;;;;;5069663;28;20267;-77
2022/12/02 09:26:04;;;;;;;;;;;;;;;;;;5058008;28;20260;-77
2022/12/02 09:28:30;;;;;;;;;;;;;;;;;;5066479;28;20378;-76
2022/12/02 09:31:17;;;;;;;;;;;;;;;;;;5068899;28;19908;-76
2022/12/02 09:33:42;;;;;;;;;;;;;;;;;;5066626;28;19912;-78
2022/12/02 09:36:08;;;;;;;;;;;;;;;;;;5068938;28;19931;-77
2022/12/02 09:38:34;;;;;;;;;;;;;;;;;;5062922;28;19912;-77
2022/12/02 09:41:00;;;;;;;;;;;;;;;;;;5068207;28;19919;-77
2022/12/02 09:43:26;;;;;;;;;;;;;;;;;;5067078;28;19916;-77
2022/12/02 09:45:52;;;;;;;;;;;;;;;;;;5069111;28;19999;-76
2022/12/02 09:48:17;;;;;;;;;;;;;;;;;;5065055;28;19921;-77
2022/12/02 09:50:43;;;;;;;;;;;;;;;;;;5068412;28;19916;-77
2022/12/02 09:53:09;;;;;;;;;;;;;;;;;;5065647;28;19908;-77
2022/12/02 09:55:35;;;;;;;;;;;;;;;;;;5068273;28;19908;-79
2022/12/02 09:58:01;;;;;;;;;;;;;;;;;;5065590;28;20265;-77
2022/12/02 10:00:27;;;;;;;;;;;;;;;;;;5067776;28;19908;-76
2022/12/02 10:02:53;;;;;;;;;;;;;;;;;;5066372;28;19912;-76
2022/12/02 10:05:18;;;;;;;;;;;;;;;;;;5067905;28;20362;-76
2022/12/02 10:07:44;;;;;;;;;;;;;;;;;;5067089;28;20037;-77
2022/12/02 10:10:10;;;;;;;;;;;;;;;;;;5067437;28;20097;-77
2022/12/02 10:12:36;;;;;;;;;;;;;;;;;;5061045;28;19916;-77
2022/12/02 10:15:02;;;;;;;;;;;;;;;;;;5067724;28;19916;-77
2022/12/02 10:17:28;;;;;;;;;;;;;;;;;;5066289;28;19908;-77
2022/12/02 10:19:53;;;;;;;;;;;;;;;;;;5068864;28;19904;-77
2022/12/02 10:22:19;;;;;;;;;;;;;;;;;;5066099;28;19908;-77
2022/12/02 10:24:45;;;;;;;;;;;;;;;;;;5063150;28;20359;-76
2022/12/02 10:27:11;;;;;;;;;;;;;;;;;;5052522;28;19912;-76
2022/12/02 10:29:37;;;;;;;;;;;;;;;;;;5057510;28;19915;-77
2022/12/02 10:32:03;;;;;;;;;;;;;;;;;;5067393;28;19923;-77
2022/12/02 10:34:29;;;;;;;;;;;;;;;;;;5062986;28;20104;-77
2022/12/02 10:36:54;;;;;;;;;;;;;;;;;;5065503;28;19915;-77
2022/12/02 10:39:21;;;;;;;;;;;;;;;;;;5058546;28;19961;-77
2022/12/02 10:41:47;;;;;;;;;;;;;;;;;;5063015;28;19942;-77
2022/12/02 10:44:13;;;;;;;;;;;;;;;;;;5058169;28;20267;-77
2022/12/02 10:46:39;;;;;;;;;;;;;;;;;;5055847;28;19912;-77
2022/12/02 10:49:04;;;;;;;;;;;;;;;;;;5063424;28;19916;-77
2022/12/02 10:51:30;;;;;;;;;;;;;;;;;;5061527;28;19913;-77
2022/12/02 10:53:59;;;;;;;;;;;;;;;;;;5058870;28;19904;-76
2022/12/02 10:56:25;;;;;;;;;;;;;;;;;;5062850;28;20270;-77
2022/12/02 10:58:51;;;;;;;;;;;;;;;;;;5062550;28;19923;-77
2022/12/02 11:01:18;;;;;;;;;;;;;;;;;;5065493;28;19916;-77
2022/12/02 11:03:43;;;;;;;;;;;;;;;;;;5058111;28;19908;-77
2022/12/02 11:06:09;;;;;;;;;;;;;;;;;;5066040;28;20334;-76
2022/12/02 11:08:35;;;;;;;;;;;;;;;;;;5063345;28;20325;-77
2022/12/02 11:11:01;;;;;;;;;;;;;;;;;;5064328;28;20407;-77
2022/12/02 11:13:27;;;;;;;;;;;;;;;;;;5061393;28;19917;-77
2022/12/02 11:15:53;;;;;;;;;;;;;;;;;;5059466;28;19943;-77
2022/12/02 11:18:18;;;;;;;;;;;;;;;;;;5063131;28;19965;-77
2022/12/02 11:20:44;;;;;;;;;;;;;;;;;;5067642;28;19909;-76
2022/12/02 11:23:10;;;;;;;;;;;;;;;;;;5058361;28;20677;-77
2022/12/02 11:25:36;;;;;;;;;;;;;;;;;;5060487;28;19908;-77
2022/12/02 11:28:02;;;;;;;;;;;;;;;;;;5056760;28;19916;-77
2022/12/02 11:30:28;;;;;;;;;;;;;;;;;;5066706;28;19989;-78
2022/12/02 11:32:53;;;;;;;;;;;;;;;;;;5061709;28;19919;-78
2022/12/02 11:35:19;;;;;;;;;;;;;;;;;;5063948;28;19909;-77
2022/12/02 11:37:45;;;;;;;;;;;;;;;;;;5058323;28;20275;-78
2022/12/02 11:40:12;;;;;;;;;;;;;;;;;;5064315;28;20341;-84
2022/12/02 11:42:38;;;;;;;;;;;;;;;;;;5063317;28;19909;-88
2022/12/02 11:45:04;;;;;;;;;;;;;;;;;;5064332;28;19909;-87
2022/12/02 11:47:30;;;;;;;;;;;;;;;;;;5072183;28;19904;-86
2022/12/02 11:49:56;;;;;;;;;;;;;;;;;;5070694;28;19920;-86
2022/12/02 11:52:22;;;;;;;;;;;;;;;;;;5067718;28;19915;-86
2022/12/02 11:54:48;;;;;;;;;;;;;;;;;;5069926;28;19908;-86
2022/12/02 11:57:13;;;;;;;;;;;;;;;;;;5067135;28;19916;-87
2022/12/02 11:59:39;;;;;;;;;;;;;;;;;;5071647;28;19905;-86
2022/12/02 12:02:05;;;;;;;;;;;;;;;;;;5070984;28;20405;-87
2022/12/02 12:04:31;;;;;;;;;;;;;;;;;;5068925;28;20417;-87
2022/12/02 12:06:57;;;;;;;;;;;;;;;;;;5071685;28;20337;-87
2022/12/02 12:09:23;;;;;;;;;;;;;;;;;;5069034;28;20312;-86
2022/12/02 12:11:49;;;;;;;;;;;;;;;;;;5071126;28;20015;-86
2022/12/02 12:14:15;;;;;;;;;;;;;;;;;;5069853;28;19993;-87
2022/12/02 12:16:41;;;;;;;;;;;;;;;;;;5067436;28;19938;-87
2022/12/02 12:19:07;;;;;;;;;;;;;;;;;;5058229;28;19909;-88
2022/12/02 12:21:34;;;;;;;;;;;;;;;;;;5071093;28;19966;-87
2022/12/02 12:23:59;;;;;;;;;;;;;;;;;;5070541;28;19916;-87
2022/12/02 12:26:25;;;;;;;;;;;;;;;;;;5069406;28;19912;-85
2022/12/02 12:28:51;;;;;;;;;;;;;;;;;;5069937;28;20017;-86
2022/12/02 12:31:17;;;;;;;;;;;;;;;;;;5070892;28;19947;-87
2022/12/02 12:33:43;;;;;;;;;;;;;;;;;;5070784;28;19904;-88
2022/12/02 12:36:09;;;;;;;;;;;;;;;;;;5066802;28;19909;-85
2022/12/02 12:38:34;;;;;;;;;;;;;;;;;;5072159;28;20419;-90
2022/12/02 12:41:00;;;;;;;;;;;;;;;;;;5069326;28;20259;-87
2022/12/02 12:43:26;;;;;;;;;;;;;;;;;;5062977;28;20015;-87
2022/12/02 12:45:52;;;;;;;;;;;;;;;;;;5066645;28;19909;-87
2022/12/02 12:48:18;;;;;;;;;;;;;;;;;;5055091;28;19908;-87
2022/12/02 12:50:44;;;;;;;;;;;;;;;;;;5069942;28;19916;-87
2022/12/02 12:53:10;;;;;;;;;;;;;;;;;;5067491;28;19908;-87
2022/12/02 12:55:36;;;;;;;;;;;;;;;;;;5069938;28;19928;-86
2022/12/02 12:58:01;;;;;;;;;;;;;;;;;;5068825;28;19908;-86
2022/12/02 13:00:27;;;;;;;;;;;;;;;;;;5057359;28;19912;-87
2022/12/02 13:02:53;;;;;;;;;;;;;;;;;;5066108;28;19908;-86
2022/12/02 13:05:19;;;;;;;;;;;;;;;;;;5069857;28;20267;-85
2022/12/02 13:07:45;;;;;;;;;;;;;;;;;;5070039;28;19993;-89
2022/12/02 13:10:11;;;;;;;;;;;;;;;;;;5070583;28;19908;-89
2022/12/02 13:12:37;;;;;;;;;;;;;;;;;;5068332;28;19909;-87
2022/12/02 13:15:03;;;;;;;;;;;;;;;;;;5068861;28;19916;-77
2022/12/02 13:17:28;;;;;;;;;;;;;;;;;;5071328;28;19908;-77
2022/12/02 13:19:54;;;;;;;;;;;;;;;;;;5066517;28;20381;-77
2022/12/02 13:22:20;;;;;;;;;;;;;;;;;;5071356;28;19916;-77
2022/12/02 13:24:46;;;;;;;;;;;;;;;;;;5066979;28;19919;-76
2022/12/02 13:27:12;;;;;;;;;;;;;;;;;;5062870;28;20027;-76
2022/12/02 13:29:38;;;;;;;;;;;;;;;;;;5060363;28;19915;-77
2022/12/02 13:32:03;;;;;;;;;;;;;;;;;;5066893;28;19913;-78
2022/12/02 13:34:29;;;;;;;;;;;;;;;;;;5065611;28;19969;-77
2022/12/02 13:36:55;;;;;;;;;;;;;;;;;;5059868;28;19915;-77
2022/12/02 13:39:21;;;;;;;;;;;;;;;;;;5065412;28;20438;-76
2022/12/02 13:41:47;;;;;;;;;;;;;;;;;;5064320;28;19971;-75
2022/12/02 13:44:13;;;;;;;;;;;;;;;;;;5056308;28;19915;-79
2022/12/02 13:46:41;;;;;;;;;;;;;;;;;;5062620;28;19922;-78
2022/12/02 13:49:07;;;;;;;;;;;;;;;;;;5059986;28;20381;-79
2022/12/02 13:51:33;;;;;;;;;;;;;;;;;;5061346;28;19940;-79
2022/12/02 13:54:02;;;;;;;;;;;;;;;;;;5068845;28;19904;-78
2022/12/02 13:56:28;;;;;;;;;;;;;;;;;;5065600;28;20370;-74
2022/12/02 13:58:54;;;;;;;;;;;;;;;;;;5066534;28;19916;-76
2022/12/02 14:01:20;;;;;;;;;;;;;;;;;;5058640;28;19916;-76
2022/12/02 14:03:46;;;;;;;;;;;;;;;;;;5057197;28;19935;-76
2022/12/02 14:06:11;;;;;;;;;;;;;;;;;;5060529;28;19927;-76
2022/12/02 14:08:37;;;;;;;;;;;;;;;;;;5067662;28;19905;-76
2022/12/02 14:11:03;;;;;;;;;;;;;;;;;;5053931;28;19909;-80
2022/12/02 14:13:29;;;;;;;;;;;;;;;;;;5065172;28;19915;-79
2022/12/02 14:15:55;;;;;;;;;;;;;;;;;;5063815;28;19912;-76
2022/12/02 14:18:21;;;;;;;;;;;;;;;;;;5058387;28;19969;-79
2022/12/02 14:20:48;;;;;;;;;;;;;;;;;;5072222;28;19919;-81
2022/12/02 14:23:14;;;;;;;;;;;;;;;;;;5068252;28;19909;-77
2022/12/02 14:25:40;;;;;;;;;;;;;;;;;;5066360;28;20287;-77
2022/12/02 14:28:06;;;;;;;;;;;;;;;;;;5068541;28;19919;-77
2022/12/02 14:30:32;;;;;;;;;;;;;;;;;;5077298;28;19907;-78
2022/12/02 14:32:58;;;;;;;;;;;;;;;;;;5059451;28;19951;-77
2022/12/02 14:35:24;;;;;;;;;;;;;;;;;;5070209;28;20212;-80
2022/12/02 14:37:50;;;;;;;;;;;;;;;;;;5069475;28;19919;-79
2022/12/02 14:40:16;;;;;;;;;;;;;;;;;;5059930;28;19913;-79
2022/12/02 14:42:42;;;;;;;;;;;;;;;;;;5072441;28;20137;-78
2022/12/02 14:45:08;;;;;;;;;;;;;;;;;;5056378;28;19905;-79
2022/12/02 14:47:34;;;;;;;;;;;;;;;;;;5062763;28;19908;-78
2022/12/02 14:49:59;;;;;;;;;;;;;;;;;;5063503;28;19916;-78
2022/12/02 14:52:25;;;;;;;;;;;;;;;;;;5069575;28;19908;-87
2022/12/02 14:54:51;;;;;;;;;;;;;;;;;;5061606;28;19916;-79
2022/12/02 14:57:18;;;;;;;;;;;;;;;;;;5068831;28;19915;-85
2022/12/02 14:59:44;;;;;;;;;;;;;;;;;;5063734;28;19908;-79
2022/12/02 15:02:09;;;;;;;;;;;;;;;;;;5058048;28;20334;-76
2022/12/02 15:04:35;;;;;;;;;;;;;;;;;;5059994;28;19904;-75
2022/12/02 15:07:01;;;;;;;;;;;;;;;;;;5068673;28;20334;-76
2022/12/02 15:09:27;;;;;;;;;;;;;;;;;;5069595;28;19910;-76
2022/12/02 15:11:53;;;;;;;;;;;;;;;;;;5071383;28;19904;-76
2022/12/02 15:14:19;;;;;;;;;;;;;;;;;;5052401;28;19947;-77
2022/12/02 15:16:45;;;;;;;;;;;;;;;;;;5064704;28;19905;-76
2022/12/02 15:19:11;;;;;;;;;;;;;;;;;;5066012;28;19915;-77
2022/12/02 15:21:37;;;;;;;;;;;;;;;;;;5070010;28;20002;-76
2022/12/02 15:24:03;;;;;;;;;;;;;;;;;;5064497;28;20316;-76
2022/12/02 15:26:28;;;;;;;;;;;;;;;;;;5069947;28;20013;-76
2022/12/02 15:28:54;;;;;;;;;;;;;;;;;;5069978;28;20278;-77
2022/12/02 15:31:20;;;;;;;;;;;;;;;;;;5071288;28;20532;-76
2022/12/02 15:33:46;;;;;;;;;;;;;;;;;;5070181;28;19923;-77
2022/12/02 15:36:12;;;;;;;;;;;;;;;;;;5071643;28;19988;-76
2022/12/02 15:38:38;;;;;;;;;;;;;;;;;;5071377;28;19927;-77
2022/12/02 15:41:04;;;;;;;;;;;;;;;;;;5064931;28;19912;-76
2022/12/02 15:43:30;;;;;;;;;;;;;;;;;;5060429;28;20026;-76
2022/12/02 15:45:56;;;;;;;;;;;;;;;;;;5063130;28;19908;-76
2022/12/02 15:48:22;;;;;;;;;;;;;;;;;;5071554;28;19943;-77
2022/12/02 15:50:48;;;;;;;;;;;;;;;;;;5061168;28;20130;-76
2022/12/02 15:53:14;;;;;;;;;;;;;;;;;;5069126;28;19915;-76
2022/12/02 15:55:40;;;;;;;;;;;;;;;;;;5070590;28;19995;-76
2022/12/02 15:58:05;;;;;;;;;;;;;;;;;;5071684;28;19916;-76
2022/12/02 16:00:31;;;;;;;;;;;;;;;;;;5069328;28;20351;-77
2022/12/02 16:02:57;;;;;;;;;;;;;;;;;;5065783;28;20369;-77
2022/12/02 16:05:23;;;;;;;;;;;;;;;;;;5065029;28;19959;-76
2022/12/02 16:07:49;;;;;;;;;;;;;;;;;;5062973;28;20282;-77
2022/12/02 16:10:15;;;;;;;;;;;;;;;;;;5070448;28;19911;-77
2022/12/02 16:12:41;;;;;;;;;;;;;;;;;;5062425;28;20248;-76
2022/12/02 16:15:07;;;;;;;;;;;;;;;;;;5070802;28;19908;-76
2022/12/02 16:17:33;;;;;;;;;;;;;;;;;;5063158;28;19926;-76
2022/12/02 16:19:59;;;;;;;;;;;;;;;;;;5064998;28;19908;-76
2022/12/02 16:22:25;;;;;;;;;;;;;;;;;;5059898;28;19912;-82
2022/12/02 16:24:51;;;;;;;;;;;;;;;;;;5057063;28;20105;-82
2022/12/02 16:27:17;;;;;;;;;;;;;;;;;;5063646;28;19989;-87
2022/12/02 16:29:42;;;;;;;;;;;;;;;;;;5066605;28;19912;-77
2022/12/02 16:32:11;;;;;;;;;;;;;;;;;;5063111;28;19908;-76
2022/12/02 16:34:37;;;;;;;;;;;;;;;;;;5062536;28;19915;-76
2022/12/02 16:37:03;;;;;;;;;;;;;;;;;;5066205;28;19913;-75
2022/12/02 16:39:29;;;;;;;;;;;;;;;;;;5060871;28;19912;-77